Time;durP1;ratioP1;P1;durP2;ratioP2;P2;SDS_P1;SDS_P2;PMS_P1;PMS_P2;Temp;Humidity;BMP_temperature;BMP_pressure;BME280_temperature;BME280_humidity;BME280_pressure;Samples;Min_cycle;Max_cycle;Signal;HPM_P1;HPM_P2
2022/01/18 00:00:10;;;;;;;4.83;4.20;;;;;;;3.60;100.00;97907.22;5034221;27;101835;-61
2022/01/18 00:02:38;;;;;;;4.83;4.30;;;;;;;3.62;100.00;97902.63;5030926;28;105458;-61
2022/01/18 00:05:13;;;;;;;5.13;4.63;;;;;;;3.62;100.00;97899.16;5047159;27;105061;-61
2022/01/18 00:07:40;;;;;;;5.13;4.60;;;;;;;3.63;100.00;97901.63;5013939;27;101825;-61
2022/01/18 00:10:08;;;;;;;5.70;4.43;;;;;;;3.65;100.00;97904.91;5034214;27;105361;-61
2022/01/18 00:13:09;;;;;;;5.20;4.70;;;;;;;3.66;100.00;97908.38;5051612;27;102568;-61
2022/01/18 00:15:41;;;;;;;5.50;4.70;;;;;;;3.67;100.00;97926.59;5033887;27;102324;-61
2022/01/18 00:18:12;;;;;;;4.90;4.50;;;;;;;3.66;100.00;97930.22;5052344;27;102794;-61
2022/01/18 00:20:56;;;;;;;5.50;4.97;;;;;;;3.66;100.00;97921.50;5036710;27;105823;-61
2022/01/18 00:23:24;;;;;;;5.37;4.77;;;;;;;3.69;100.00;97918.53;5024328;28;105241;-61
2022/01/18 00:25:56;;;;;;;5.60;5.10;;;;;;;3.68;100.00;97922.16;5016598;27;105004;-61
2022/01/18 00:28:56;;;;;;;5.23;4.70;;;;;;;3.72;100.00;97920.84;5033897;27;101790;-60
2022/01/18 00:31:37;;;;;;;5.20;4.70;;;;;;;3.71;100.00;97924.47;5030387;28;104847;-60
2022/01/18 00:34:08;;;;;;;5.90;4.53;;;;;;;3.71;100.00;97940.25;5046763;27;105736;-60
2022/01/18 00:36:41;;;;;;;5.53;4.57;;;;;;;3.74;100.00;97937.25;5022019;27;102089;-61
2022/01/18 00:39:21;;;;;;;5.30;4.80;;;;;;;3.73;100.00;97944.34;5033925;27;105017;-61
2022/01/18 00:42:04;;;;;;;5.37;4.87;;;;;;;3.76;100.00;97943.19;5029607;28;105379;-60
2022/01/18 00:44:31;;;;;;;5.30;4.80;;;;;;;3.74;100.00;97940.72;5050490;27;101746;-60
2022/01/18 00:46:58;;;;;;;5.73;5.17;;;;;;;3.77;100.00;97950.09;5030121;27;102552;-60
2022/01/18 00:49:42;;;;;;;5.67;5.07;;;;;;;3.68;100.00;97946.66;5013483;28;101981;-60
2022/01/18 00:52:11;;;;;;;5.47;4.80;;;;;;;3.67;100.00;97949.47;5025126;27;105122;-61
2022/01/18 00:54:41;;;;;;;7.03;6.07;;;;;;;3.65;100.00;97954.88;5032961;27;104518;-61
2022/01/18 00:57:09;;;;;;;5.93;5.17;;;;;;;3.59;100.00;97960.00;5033309;27;101936;-61
2022/01/18 00:59:36;;;;;;;6.57;4.97;;;;;;;3.56;100.00;97962.97;5033532;27;105181;-61
2022/01/18 01:02:04;;;;;;;5.67;4.97;;;;;;;3.57;100.00;97973.34;5029253;28;105734;-61
2022/01/18 01:04:35;;;;;;;5.33;4.83;;;;;;;3.50;100.00;97974.97;5031848;27;101911;-61
2022/01/18 01:07:02;;;;;;;6.13;5.23;;;;;;;3.43;100.00;97992.41;5032453;28;105076;-61
2022/01/18 01:09:34;;;;;;;5.97;5.27;;;;;;;3.34;100.00;97982.06;5013055;28;102011;-61
2022/01/18 01:12:07;;;;;;;7.10;5.47;;;;;;;3.33;100.00;97983.06;5028366;27;105216;-61
2022/01/18 01:14:34;;;;;;;6.43;5.57;;;;;;;3.30;100.00;98004.44;5028467;28;105480;-61
2022/01/18 01:17:14;;;;;;;5.77;5.00;;;;;;;3.25;100.00;98007.56;5028312;27;101883;-61
2022/01/18 01:32:10;;;;;;;5.57;4.80;;;;;;;3.26;100.00;98003.94;5033310;27;104873;-61
2022/01/18 01:43:11;;;;;;;6.10;5.50;;;;;;;3.25;100.00;98022.50;5015415;27;105398;-60
2022/01/18 01:45:39;;;;;;;6.63;5.27;;;;;;;3.26;100.00;98013.63;5032008;27;105525;-61
2022/01/18 01:48:12;;;;;;;7.60;5.20;;;;;;;3.25;100.00;98018.06;5032623;27;101857;-61
2022/01/18 01:50:47;;;;;;;6.20;5.53;;;;;;;3.24;100.00;98016.44;5032396;27;105435;-61
2022/01/18 01:53:16;;;;;;;6.37;5.30;;;;;;;3.26;100.00;98017.09;5032002;27;105699;-61
2022/01/18 01:55:43;;;;;;;6.30;5.53;;;;;;;3.27;100.00;98020.53;5035773;27;101819;-61
2022/01/18 01:58:24;;;;;;;6.03;5.33;;;;;;;3.31;100.00;98016.56;5031859;27;105560;-61
2022/01/18 02:00:54;;;;;;;5.60;5.00;;;;;;;3.26;100.00;98021.50;5032224;27;101790;-61
2022/01/18 02:03:21;;;;;;;5.23;4.73;;;;;;;3.29;100.00;98015.94;5032437;27;105550;-61
2022/01/18 02:05:49;;;;;;;5.90;5.13;;;;;;;3.26;100.00;98018.88;5028178;28;105749;-61
2022/01/18 02:08:17;;;;;;;5.90;5.30;;;;;;;3.26;100.00;98011.00;5030534;28;101787;-61
2022/01/18 02:10:45;;;;;;;6.03;5.27;;;;;;;3.27;100.00;98010.03;5012976;28;105308;-61
2022/01/18 02:13:14;;;;;;;6.17;5.23;;;;;;;3.32;100.00;98012.97;5011535;28;105436;-61
2022/01/18 02:15:58;;;;;;;5.73;5.13;;;;;;;3.31;100.00;98014.78;5019512;27;101929;-61
2022/01/18 02:24:11;;;;;;;6.27;5.53;;;;;;;3.25;100.00;97996.22;4990781;28;105537;-61
2022/01/18 02:26:38;;;;;;;6.70;5.93;;;;;;;3.20;100.00;97994.09;4990094;28;105447;-61
2022/01/18 02:29:10;;;;;;;6.50;5.80;;;;;;;3.16;100.00;97986.72;4990578;28;101852;-61
2022/01/18 02:31:38;;;;;;;6.90;5.83;;;;;;;3.17;100.00;97988.34;5007953;28;102452;-61
2022/01/18 02:34:08;;;;;;;6.87;5.97;;;;;;;3.13;100.00;97998.38;5006419;28;105066;-61
2022/01/18 02:36:37;;;;;;;7.27;6.13;;;;;;;3.09;100.00;97996.22;5008113;28;101841;-61
2022/01/18 02:39:27;;;;;;;7.13;6.03;;;;;;;3.15;100.00;97991.13;4990420;28;105477;-61
2022/01/18 02:42:11;;;;;;;9.70;6.37;;;;;;;3.15;100.00;98000.81;4982027;28;101964;-61
2022/01/18 02:44:38;;;;;;;7.97;6.60;;;;;;;3.11;100.00;97991.63;4990682;28;104166;-61
2022/01/18 02:47:06;;;;;;;6.93;6.23;;;;;;;3.10;100.00;97995.22;5007050;28;102477;-61
2022/01/18 02:49:54;;;;;;;7.63;6.17;;;;;;;3.11;100.00;97992.44;4990450;28;103357;-61
2022/01/18 02:52:22;;;;;;;7.73;6.20;;;;;;;3.10;100.00;98000.47;4987158;28;105484;-60
2022/01/18 02:54:49;;;;;;;7.37;6.23;;;;;;;3.11;100.00;98002.16;4995685;27;105538;-60
2022/01/18 02:57:26;;;;;;;7.03;6.00;;;;;;;3.16;100.00;98005.13;5031686;27;101933;-61
2022/01/18 03:00:07;;;;;;;6.87;5.83;;;;;;;3.17;100.00;97993.59;5031915;27;105578;-61
2022/01/18 03:05:19;;;;;;;6.90;6.20;;;;;;;3.20;100.00;97988.00;5025785;27;104156;-61
2022/01/18 03:08:03;;;;;;;9.70;6.67;;;;;;;3.22;100.00;97997.38;5031138;27;103949;-61
2022/01/18 03:10:30;;;;;;;7.40;6.03;;;;;;;3.24;100.00;97997.22;5030270;27;101895;-61
2022/01/18 03:13:37;;;;;;;9.97;7.13;;;;;;;3.29;100.00;97995.69;5034182;27;105608;-61
2022/01/18 03:16:04;;;;;;;8.83;6.10;;;;;;;3.22;100.00;98000.00;4990859;28;105169;-60
2022/01/18 03:18:31;;;;;;;7.43;6.10;;;;;;;3.21;100.00;97994.88;4991601;28;101761;-61
2022/01/18 03:20:58;;;;;;;9.67;7.10;;;;;;;3.22;100.00;97996.56;4991632;28;105234;-61
2022/01/18 03:23:27;;;;;;;8.73;6.43;;;;;;;3.30;100.00;98002.63;4992488;28;105254;-61
2022/01/18 03:25:56;;;;;;;9.43;6.63;;;;;;;3.22;100.00;98002.63;5014213;28;102056;-61
2022/01/18 03:29:04;;;;;;;10.53;7.77;;;;;;;3.24;100.00;98010.34;5012034;28;103173;-61
2022/01/18 03:31:30;;;;;;;8.13;7.13;;;;;;;3.28;100.00;98006.41;5007369;28;101943;-61
2022/01/18 03:33:58;;;;;;;9.03;6.50;;;;;;;3.30;100.00;98007.06;4991233;28;105261;-61
2022/01/18 03:36:26;;;;;;;9.37;7.37;;;;;;;3.28;100.00;98001.97;5007567;28;105686;-61
2022/01/18 03:39:01;;;;;;;9.47;7.50;;;;;;;3.35;100.00;98004.75;4991158;28;101847;-61
2022/01/18 03:41:51;;;;;;;11.70;7.50;;;;;;;3.33;100.00;98010.16;4991022;28;105248;-61
2022/01/18 03:44:18;;;;;;;8.50;6.60;;;;;;;3.32;100.00;98016.41;4991980;28;103712;-61
2022/01/18 03:46:46;;;;;;;7.83;5.77;;;;;;;3.38;100.00;98020.22;4992073;28;102032;-61
2022/01/18 03:49:13;;;;;;;7.07;6.07;;;;;;;3.29;100.00;98031.72;4993879;28;106102;-61
2022/01/18 03:51:41;;;;;;;6.23;5.40;;;;;;;3.32;100.00;98024.31;4994199;28;101878;-61
2022/01/18 03:54:10;;;;;;;6.67;5.70;;;;;;;3.40;100.00;98032.22;4998405;28;105205;-60
2022/01/18 03:56:36;;;;;;;7.03;6.07;;;;;;;3.43;100.00;98026.59;4990537;28;105596;-60
2022/01/18 03:59:58;;;;;;;6.17;5.13;;;;;;;3.40;100.00;98034.84;4991381;28;101911;-60
2022/01/18 04:02:26;;;;;;;6.87;5.57;;;;;;;3.35;100.00;98033.69;4996555;28;105141;-60
2022/01/18 04:04:53;;;;;;;7.47;5.87;;;;;;;3.43;100.00;98025.75;4990180;28;105539;-60
2022/01/18 04:07:19;;;;;;;6.83;5.97;;;;;;;3.39;100.00;98027.09;4998397;28;101901;-60
2022/01/18 04:09:48;;;;;;;8.50;6.70;;;;;;;3.43;100.00;98028.41;5010752;28;105283;-60
2022/01/18 04:13:03;;;;;;;8.43;6.40;;;;;;;3.48;100.00;98024.28;5005197;28;101975;-60
2022/01/18 04:15:31;;;;;;;6.87;5.70;;;;;;;3.48;100.00;98028.72;5003162;28;105746;-60
2022/01/18 04:18:15;;;;;;;6.90;5.73;;;;;;;3.45;100.00;98026.44;5003199;28;105750;-60
2022/01/18 04:29:02;;;;;;;6.90;5.50;;;;;;;3.51;100.00;98039.75;5007108;28;101850;-61
2022/01/18 04:31:30;;;;;;;6.47;5.27;;;;;;;3.50;100.00;98045.16;5007090;28;104823;-60
2022/01/18 04:33:58;;;;;;;5.67;5.17;;;;;;;3.50;100.00;98047.81;4996005;28;105529;-61
2022/01/18 04:36:26;;;;;;;6.67;5.70;;;;;;;3.46;100.00;98057.00;5010453;28;105328;-60
2022/01/18 04:38:55;;;;;;;6.10;5.50;;;;;;;3.50;100.00;98059.13;5006228;28;105593;-60
2022/01/18 04:41:29;;;;;;;8.37;5.77;;;;;;;3.47;100.00;98053.38;4990388;28;101928;-60
2022/01/18 04:52:47;;;;;;;7.60;5.53;;;;;;;3.39;100.00;98056.03;5009785;28;105643;-61
2022/01/18 04:55:15;;;;;;;6.50;4.97;;;;;;;3.42;100.00;98055.69;5006055;28;105513;-61
2022/01/18 04:58:17;;;;;;;6.60;5.90;;;;;;;3.48;100.00;98065.53;5001587;28;101892;-61
2022/01/18 05:00:44;;;;;;;8.83;6.00;;;;;;;3.58;100.00;98063.56;5009483;28;104407;-61
2022/01/18 05:03:11;;;;;;;6.43;5.83;;;;;;;3.44;100.00;98065.06;5006538;28;101898;-61
2022/01/18 05:05:39;;;;;;;6.00;5.17;;;;;;;3.50;100.00;98068.84;5003024;28;103524;-61
2022/01/18 05:11:38;;;;;;;7.33;6.00;;;;;;;3.49;100.00;98062.75;4990325;28;101795;-60
2022/01/18 05:14:19;;;;;;;8.20;6.60;;;;;;;3.45;100.00;98071.16;5012869;28;105178;-61
2022/01/18 05:16:54;;;;;;;7.33;6.53;;;;;;;3.45;100.00;98065.88;5029162;28;105458;-61
2022/01/18 05:19:46;;;;;;;8.33;6.67;;;;;;;3.46;100.00;98078.03;5029956;28;101802;-61
2022/01/18 05:25:00;;;;;;;10.10;7.83;;;;;;;3.44;100.00;98080.03;5019752;28;101963;-61
2022/01/18 05:27:43;;;;;;;10.33;7.70;;;;;;;3.46;100.00;98075.41;5029325;28;105616;-61
2022/01/18 05:30:12;;;;;;;9.80;7.83;;;;;;;3.45;100.00;98082.47;5028928;28;105860;-61
2022/01/18 05:32:39;;;;;;;9.20;7.53;;;;;;;3.46;100.00;98084.13;5029232;28;101927;-61
2022/01/18 05:35:06;;;;;;;9.90;7.70;;;;;;;3.43;100.00;98083.63;5025998;28;105510;-61
2022/01/18 05:37:35;;;;;;;9.13;7.80;;;;;;;3.42;100.00;98081.97;5017444;28;105246;-61
2022/01/18 05:40:02;;;;;;;9.23;7.33;;;;;;;3.44;100.00;98096.59;5026049;28;101934;-61
2022/01/18 05:42:52;;;;;;;9.13;7.90;;;;;;;3.42;100.00;98076.72;5009296;28;104902;-61
2022/01/18 05:45:36;;;;;;;10.53;8.47;;;;;;;3.44;100.00;98083.47;5018425;28;106268;-61
2022/01/18 05:48:14;;;;;;;10.17;8.10;;;;;;;3.46;100.00;98086.75;4929126;28;105259;-61
2022/01/18 05:50:40;;;;;;;9.20;7.97;;;;;;;3.43;100.00;98078.34;4912394;28;105375;-61
2022/01/18 05:53:09;;;;;;;8.93;7.53;;;;;;;3.45;100.00;98077.22;4941828;28;102088;-61
2022/01/18 05:55:36;;;;;;;8.50;7.50;;;;;;;3.50;100.00;98079.38;4945589;28;105062;-61
2022/01/18 05:58:10;;;;;;;8.83;7.37;;;;;;;3.54;100.00;98080.66;4912626;28;105779;-61
2022/01/18 06:00:41;;;;;;;10.10;7.53;;;;;;;3.51;100.00;98075.75;4945567;28;103685;-61
2022/01/18 06:03:26;;;;;;;8.00;7.17;;;;;;;3.49;100.00;98077.72;4929845;28;105205;-61
2022/01/18 06:09:01;;;;;;;11.07;8.77;;;;;;;3.44;100.00;98074.78;4935545;28;101992;-61
2022/01/18 06:11:29;;;;;;;10.23;8.50;;;;;;;3.44;100.00;98080.03;4931550;28;105151;-61
2022/01/18 06:13:57;;;;;;;10.40;8.03;;;;;;;3.46;100.00;98088.56;4934280;28;102014;-61
2022/01/18 06:16:26;;;;;;;10.07;8.13;;;;;;;3.44;100.00;98090.53;4951235;28;105374;-61
2022/01/18 06:22:19;;;;;;;9.17;7.77;;;;;;;3.41;100.00;98093.50;4948636;28;102371;-61
2022/01/18 06:24:46;;;;;;;10.40;8.23;;;;;;;3.37;100.00;98098.25;4978330;28;102533;-61
2022/01/18 06:27:13;;;;;;;10.03;8.17;;;;;;;3.39;100.00;98096.28;5008201;28;104287;-61
2022/01/18 06:29:40;;;;;;;11.47;8.37;;;;;;;3.34;100.00;98098.56;5008717;28;102284;-61
2022/01/18 06:32:09;;;;;;;10.30;8.70;;;;;;;3.39;100.00;98098.91;5004826;28;106510;-61
2022/01/18 06:34:37;;;;;;;9.93;8.27;;;;;;;3.37;100.00;98103.53;4992837;28;103115;-60
2022/01/18 06:37:05;;;;;;;9.67;8.43;;;;;;;3.35;100.00;98102.88;5008398;28;104975;-60
2022/01/18 06:40:18;;;;;;;10.70;8.57;;;;;;;3.40;100.00;98105.00;5004488;28;105501;-61
2022/01/18 06:42:47;;;;;;;9.20;8.17;;;;;;;3.36;100.00;98106.31;4994268;28;101959;-60
2022/01/18 06:45:15;;;;;;;9.77;8.37;;;;;;;3.33;100.00;98119.78;5010021;28;105562;-60
2022/01/18 06:47:58;;;;;;;11.63;8.57;;;;;;;3.30;100.00;98117.47;4992807;28;103065;-60
2022/01/18 06:50:24;;;;;;;12.73;9.43;;;;;;;3.37;100.00;98128.97;5004614;28;102031;-60
2022/01/18 06:52:51;;;;;;;9.80;8.63;;;;;;;3.43;100.00;98141.47;5011456;28;105466;-60
2022/01/18 06:55:18;;;;;;;12.03;9.57;;;;;;;3.45;100.00;98136.88;4992012;28;102016;-60
2022/01/18 06:57:52;;;;;;;12.33;9.67;;;;;;;3.44;100.00;98146.56;4996805;28;103729;-60
2022/01/18 07:00:19;;;;;;;14.03;10.47;;;;;;;3.41;100.00;98151.34;5007857;28;105720;-61
2022/01/18 07:02:47;;;;;;;13.03;10.10;;;;;;;3.46;100.00;98156.94;4996265;28;101889;-62
2022/01/18 07:05:15;;;;;;;10.80;8.40;;;;;;;3.49;100.00;98157.44;5010372;28;104197;-61
2022/01/18 07:07:46;;;;;;;10.03;8.77;;;;;;;3.55;100.00;98155.97;5012175;28;102761;-61
2022/01/18 07:10:13;;;;;;;11.87;8.40;;;;;;;3.53;100.00;98156.13;5011508;28;101747;-62
2022/01/18 07:12:47;;;;;;;11.43;8.70;;;;;;;3.62;100.00;98156.94;5011581;28;105562;-61
2022/01/18 07:15:14;;;;;;;9.73;8.53;;;;;;;3.47;100.00;98163.84;5013895;28;105788;-60
2022/01/18 07:17:56;;;;;;;10.43;8.53;;;;;;;3.35;100.00;98165.97;4993165;28;101672;-62
2022/01/18 07:20:25;;;;;;;12.17;8.13;;;;;;;3.35;100.00;98168.59;4996232;28;106001;-62
2022/01/18 07:22:52;;;;;;;12.17;8.70;;;;;;;3.32;100.00;98168.09;4992081;28;103920;-62
2022/01/18 07:25:19;;;;;;;10.47;7.97;;;;;;;3.35;100.00;98171.25;4992766;28;101689;-61
2022/01/18 07:28:22;;;;;;;10.17;8.23;;;;;;;3.34;100.00;98169.56;5001713;28;105102;-62
2022/01/18 07:30:50;;;;;;;10.50;8.77;;;;;;;3.43;100.00;98176.50;5011530;28;102078;-61
2022/01/18 07:33:19;;;;;;;12.20;8.90;;;;;;;3.59;100.00;98173.06;5011024;28;105621;-63
2022/01/18 07:35:48;;;;;;;12.00;9.47;;;;;;;3.59;100.00;98184.41;5007050;28;105812;-63
2022/01/18 07:38:32;;;;;;;16.77;14.43;;;;;;;3.57;100.00;98183.75;4996012;28;102072;-64
2022/01/18 07:41:00;;;;;;;19.77;16.07;;;;;;;3.69;100.00;98179.81;5003467;28;105905;-63
2022/01/18 07:43:27;;;;;;;14.37;11.30;;;;;;;3.60;100.00;98186.03;5009757;28;102055;-64
2022/01/18 07:45:54;;;;;;;15.77;11.00;;;;;;;3.60;100.00;98190.50;5010093;28;105093;-63
2022/01/18 07:49:03;;;;;;;13.90;9.43;;;;;;;3.67;100.00;98183.59;5009627;28;105700;-61
2022/01/18 07:51:32;;;;;;;12.90;9.40;;;;;;;3.63;100.00;98191.00;5010980;28;102092;-64
2022/01/18 07:54:00;;;;;;;11.43;9.73;;;;;;;3.71;100.00;98203.34;5010533;28;106330;-65
2022/01/18 07:56:27;;;;;;;12.50;9.73;;;;;;;3.71;100.00;98208.59;5011288;28;103596;-64
2022/01/18 07:59:00;;;;;;;11.53;9.47;;;;;;;3.84;100.00;98204.50;5008375;28;103067;-64
2022/01/18 08:01:27;;;;;;;13.27;9.77;;;;;;;3.86;100.00;98205.13;5012892;28;103700;-64
2022/01/18 08:03:55;;;;;;;12.97;9.97;;;;;;;3.86;100.00;98207.78;5010989;28;101921;-64
2022/01/18 08:06:22;;;;;;;11.63;9.57;;;;;;;3.92;100.00;98201.00;5009836;28;105137;-63
2022/01/18 08:09:00;;;;;;;12.57;10.10;;;;;;;3.94;100.00;98201.69;5009427;28;104948;-64
2022/01/18 08:11:30;;;;;;;13.33;9.50;;;;;;;3.99;100.00;98209.91;5009702;28;101937;-63
2022/01/18 08:13:59;;;;;;;13.33;9.20;;;;;;;3.97;100.00;98209.25;5015243;27;105325;-63
2022/01/18 08:16:48;;;;;;;15.30;10.60;;;;;;;3.90;100.00;98213.53;5033711;27;106015;-62
2022/01/18 08:19:18;;;;;;;11.57;9.60;;;;;;;4.00;100.00;98215.03;5029733;28;101874;-64
2022/01/18 08:21:46;;;;;;;11.80;9.70;;;;;;;4.05;100.00;98217.16;5032344;27;102864;-65
2022/01/18 08:24:15;;;;;;;13.03;11.13;;;;;;;4.18;100.00;98222.72;5036501;27;105549;-65
2022/01/18 08:26:42;;;;;;;15.33;12.80;;;;;;;4.16;100.00;98220.25;5032889;27;105910;-65
2022/01/18 08:29:45;;;;;;;17.43;13.43;;;;;;;4.15;100.00;98220.44;5032278;27;105654;-64
2022/01/18 08:32:12;;;;;;;15.77;11.97;;;;;;;4.27;100.00;98221.75;5032556;27;102056;-64
2022/01/18 08:34:40;;;;;;;13.07;10.00;;;;;;;4.23;100.00;98228.31;5012889;28;105235;-64
2022/01/18 08:37:07;;;;;;;9.97;8.53;;;;;;;4.05;100.00;98225.03;5030106;28;103062;-64
2022/01/18 08:40:29;;;;;;;12.27;9.37;;;;;;;4.10;100.00;98225.38;5036026;27;101810;-64
2022/01/18 08:43:03;;;;;;;12.33;9.43;;;;;;;4.04;100.00;98220.78;5030062;28;106587;-64
2022/01/18 08:45:30;;;;;;;11.20;9.57;;;;;;;3.87;100.00;98224.41;5052996;27;106453;-64
2022/01/18 08:48:07;;;;;;;12.23;9.67;;;;;;;3.90;100.00;98224.88;5033776;27;104858;-63
2022/01/18 08:50:35;;;;;;;13.03;9.67;;;;;;;3.91;100.00;98229.16;5032924;27;104402;-61
2022/01/18 08:53:03;;;;;;;11.50;8.23;;;;;;;3.88;100.00;98224.22;5033445;27;101685;-64
2022/01/18 08:55:33;;;;;;;12.60;9.50;;;;;;;3.88;100.00;98221.56;5033365;27;105278;-63
2022/01/18 08:58:37;;;;;;;12.30;9.97;;;;;;;3.92;100.00;98216.81;5032516;27;105587;-66
2022/01/18 09:01:17;;;;;;;10.87;9.03;;;;;;;3.96;100.00;98218.13;5027429;27;101808;-66
2022/01/18 09:03:46;;;;;;;11.30;9.20;;;;;;;4.02;100.00;98217.47;5031953;27;105636;-65
2022/01/18 09:06:16;;;;;;;10.53;8.47;;;;;;;3.90;100.00;98219.63;5032805;27;104612;-62
2022/01/18 09:08:54;;;;;;;11.00;8.20;;;;;;;3.85;100.00;98221.91;5035586;27;102016;-59
2022/01/18 09:11:44;;;;;;;10.47;9.10;;;;;;;4.03;100.00;98227.00;5032691;27;105333;-59
2022/01/18 09:14:13;;;;;;;13.53;9.37;;;;;;;4.14;100.00;98227.50;5032638;27;101899;-59
2022/01/18 09:16:40;;;;;;;10.73;9.43;;;;;;;4.03;100.00;98227.84;5033152;27;104927;-60
2022/01/18 09:19:27;;;;;;;11.83;9.27;;;;;;;4.09;100.00;98224.53;5029077;28;104994;-62
2022/01/18 09:21:54;;;;;;;12.60;8.70;;;;;;;3.89;100.00;98225.88;5013053;28;101734;-62
2022/01/18 09:24:22;;;;;;;11.13;8.60;;;;;;;3.91;100.00;98237.06;5029722;28;105405;-62
2022/01/18 09:26:48;;;;;;;10.87;8.77;;;;;;;3.97;100.00;98233.75;5028959;28;105691;-63
2022/01/18 09:30:05;;;;;;;13.27;9.27;;;;;;;3.98;100.00;98242.50;5012848;28;101866;-61
2022/01/18 09:32:33;;;;;;;13.23;9.67;;;;;;;3.88;100.00;98244.47;5049408;27;103819;-62
2022/01/18 09:35:01;;;;;;;11.53;9.37;;;;;;;4.05;100.00;98246.91;5012547;28;101793;-62
2022/01/18 09:38:16;;;;;;;12.53;8.67;;;;;;;4.14;100.00;98250.41;5031895;27;104114;-61
2022/01/18 09:40:45;;;;;;;11.10;8.83;;;;;;;4.21;100.00;98251.38;5028919;28;105013;-62
2022/01/18 09:43:14;;;;;;;13.93;9.70;;;;;;;4.18;100.00;98249.88;5035483;27;103433;-60
2022/01/18 09:45:44;;;;;;;13.97;9.70;;;;;;;4.26;100.00;98257.78;5032783;27;105306;-66
2022/01/18 09:48:17;;;;;;;12.40;9.37;;;;;;;4.21;100.00;98254.81;5050205;27;102709;-61
2022/01/18 09:50:46;;;;;;;12.23;9.33;;;;;;;4.14;100.00;98247.75;5030047;27;103088;-63
2022/01/18 09:53:15;;;;;;;12.43;9.30;;;;;;;4.15;100.00;98249.41;5032399;27;105432;-63
2022/01/18 09:55:44;;;;;;;13.43;9.93;;;;;;;4.22;100.00;98253.84;5031830;28;105900;-63
2022/01/18 09:58:19;;;;;;;12.87;9.60;;;;;;;4.18;100.00;98249.88;5012457;28;104927;-63
2022/01/18 10:00:50;;;;;;;12.47;9.20;;;;;;;4.23;100.00;98257.28;5011695;28;105214;-63
2022/01/18 10:03:32;;;;;;;14.70;10.50;;;;;;;4.18;100.00;98242.00;5046420;27;101909;-62
2022/01/18 10:06:01;;;;;;;12.80;9.97;;;;;;;4.26;100.00;98236.69;5030340;27;104833;-62
2022/01/18 10:12:37;;;;;;;10.20;8.83;;;;;;;4.33;100.00;98226.34;5032099;27;102498;-61
2022/01/18 10:15:08;;;;;;;12.83;9.60;;;;;;;4.60;100.00;98225.97;5031741;27;104926;-61
2022/01/18 10:20:59;;;;;;;11.80;9.17;;;;;;;4.38;100.00;98231.94;5042440;27;101814;-62
2022/01/18 10:23:27;;;;;;;11.63;9.13;;;;;;;4.53;100.00;98225.78;5038325;27;105827;-62
2022/01/18 10:25:56;;;;;;;12.03;9.27;;;;;;;4.61;100.00;98217.06;5039025;27;101874;-61
2022/01/18 10:28:33;;;;;;;12.03;8.30;;;;;;;4.73;100.00;98221.81;5038834;27;105546;-60
2022/01/18 10:31:05;;;;;;;11.13;8.70;;;;;;;4.84;100.00;98212.69;5038216;27;105711;-59
2022/01/18 10:33:46;;;;;;;12.30;8.80;;;;;;;4.63;100.00;98205.34;5038949;27;101767;-62
2022/01/18 10:36:16;;;;;;;9.50;7.40;;;;;;;4.49;100.00;98205.25;5035431;28;104081;-62
2022/01/18 10:39:03;;;;;;;9.97;7.33;;;;;;;4.55;100.00;98199.28;5020189;27;105317;-62
2022/01/18 10:41:53;;;;;;;8.20;6.50;;;;;;;4.52;100.00;98200.44;5037904;27;102020;-61
2022/01/18 10:44:23;;;;;;;11.17;7.20;;;;;;;4.54;100.00;98198.47;5041536;27;104712;-61
2022/01/18 10:46:52;;;;;;;11.03;7.17;;;;;;;4.75;100.00;98190.03;5038562;27;102283;-61
2022/01/18 10:49:32;;;;;;;10.73;7.47;;;;;;;4.73;100.00;98190.19;5038434;27;105411;-61
2022/01/18 10:52:05;;;;;;;11.00;7.43;;;;;;;4.80;100.00;98182.44;5037690;27;105694;-61
2022/01/18 10:54:51;;;;;;;11.87;8.10;;;;;;;4.94;100.00;98179.06;5038237;27;101881;-61
2022/01/18 10:57:39;;;;;;;8.50;6.80;;;;;;;5.20;100.00;98174.31;5036863;27;105074;-62
2022/01/18 11:00:09;;;;;;;7.07;5.70;;;;;;;4.88;100.00;98169.19;5037878;27;104365;-64
2022/01/18 11:02:38;;;;;;;6.43;4.57;;;;;;;4.85;100.00;98169.56;5038106;27;102975;-61
2022/01/18 11:05:13;;;;;;;6.47;4.77;;;;;;;5.05;100.00;98157.56;5041115;27;105561;-61
2022/01/18 11:07:44;;;;;;;7.53;5.00;;;;;;;5.33;100.00;98153.44;5038135;27;102168;-60
2022/01/18 11:10:13;;;;;;;7.90;4.97;;;;;;;4.95;100.00;98154.31;5034482;28;104206;-60
2022/01/18 11:13:11;;;;;;;5.87;4.77;;;;;;;5.08;100.00;98144.88;5033801;27;106141;-60
2022/01/18 11:15:40;;;;;;;7.27;4.77;;;;;;;5.44;100.00;98145.13;5034175;28;101857;-63
2022/01/18 11:18:54;;;;;;;7.47;5.90;;;;;;;5.65;100.00;98140.88;5018237;28;104880;-62
2022/01/18 11:21:24;;;;;;;6.40;5.27;;;;;;;5.81;100.00;98142.56;5017362;28;105358;-63
2022/01/18 11:23:57;;;;;;;6.27;4.17;;;;;;;5.66;100.00;98137.22;5037833;27;102003;-62
2022/01/18 11:26:24;;;;;;;8.33;4.90;;;;;;;5.83;100.00;98135.31;5056919;27;102860;-62
2022/01/18 11:29:45;;;;;;;8.40;5.23;;;;;;;5.86;100.00;98134.94;5059107;27;103144;-63
2022/01/18 11:32:13;;;;;;;5.87;3.73;;;;;;;5.92;100.00;98128.94;5017377;27;106159;-62
2022/01/18 11:34:59;;;;;;;7.87;4.47;;;;;;;5.89;100.00;98127.47;5034258;27;104407;-62
2022/01/18 11:37:43;;;;;;;7.63;4.17;;;;;;;6.07;100.00;98121.88;5034968;27;102068;-62
2022/01/18 11:40:14;;;;;;;6.00;4.23;;;;;;;5.73;100.00;98124.94;5034570;27;105030;-63
2022/01/18 11:43:22;;;;;;;6.13;3.63;;;;;;;5.51;100.00;98115.22;5030532;28;105679;-62
2022/01/18 11:45:49;;;;;;;4.63;3.13;;;;;;;5.33;100.00;98119.16;5014613;28;101790;-62
2022/01/18 11:48:20;;;;;;;4.50;3.23;;;;;;;5.36;100.00;98116.19;5048173;27;105787;-63
2022/01/18 11:50:51;;;;;;;5.47;3.80;;;;;;;5.44;100.00;98116.13;5021882;27;105687;-62
2022/01/18 11:53:37;;;;;;;9.03;3.70;;;;;;;5.51;100.00;98114.44;5038159;27;101977;-62
2022/01/18 11:56:11;;;;;;;6.37;4.20;;;;;;;5.58;100.00;98113.56;5033744;27;105654;-62
2022/01/18 11:59:19;;;;;;;6.33;4.30;;;;;;;5.53;100.00;98112.44;5034490;27;101906;-62
2022/01/18 12:01:48;;;;;;;5.37;4.47;;;;;;;5.51;100.00;98112.59;5026588;27;104576;-63
2022/01/18 12:04:16;;;;;;;7.00;4.63;;;;;;;5.28;100.00;98109.16;5033807;27;105771;-63
2022/01/18 12:06:47;;;;;;;7.00;4.87;;;;;;;5.41;100.00;98113.84;5034345;27;101998;-63
2022/01/18 12:10:09;;;;;;;6.30;4.67;;;;;;;5.39;100.00;98110.53;5033918;27;106038;-62
2022/01/18 12:13:13;;;;;;;8.97;4.80;;;;;;;5.46;100.00;98095.66;5035358;27;103178;-62
2022/01/18 12:15:49;;;;;;;5.10;3.93;;;;;;;5.72;100.00;98107.47;5030637;28;101876;-62
2022/01/18 12:18:24;;;;;;;7.87;4.70;;;;;;;5.91;100.00;98107.03;5016791;28;104806;-62
2022/01/18 12:20:53;;;;;;;6.30;4.50;;;;;;;6.01;100.00;98106.75;5032237;28;101625;-62
2022/01/18 12:23:22;;;;;;;9.63;5.20;;;;;;;6.20;100.00;98108.84;5032129;28;102475;-62
2022/01/18 12:25:57;;;;;;;5.83;3.63;;;;;;;5.93;100.00;98109.47;5030076;28;105825;-62
2022/01/18 12:35:17;;;;;;;4.93;3.07;;;;;;;5.73;100.00;98097.75;5009892;28;105693;-62
2022/01/18 12:37:54;;;;;;;3.53;2.60;;;;;;;5.27;100.00;98101.41;5010562;28;101863;-62
2022/01/18 12:40:31;;;;;;;5.20;3.17;;;;;;;5.14;100.00;98093.25;5026868;28;106732;-61
2022/01/18 12:45:59;;;;;;;4.07;2.87;;;;;;;5.40;100.00;98099.81;5030427;28;104919;-61
2022/01/18 12:48:33;;;;;;;7.70;3.60;;;;;;;5.43;100.00;98096.00;5029727;28;105695;-61
2022/01/18 12:51:02;;;;;;;5.97;3.40;;;;;;;5.37;100.00;98094.91;5030440;28;101968;-61
2022/01/18 12:53:33;;;;;;;5.07;2.93;;;;;;;5.38;100.00;98088.63;5030157;28;105257;-61
2022/01/18 12:56:02;;;;;;;3.87;2.83;;;;;;;5.68;100.00;98079.00;5026195;28;105024;-61
2022/01/18 13:01:53;;;;;;;3.37;2.80;;;;;;;5.74;100.00;98073.78;5030150;28;105607;-62
2022/01/18 13:04:22;;;;;;;4.53;3.00;;;;;;;5.86;100.00;98071.56;5026077;28;105095;-62
2022/01/18 13:06:51;;;;;;;3.43;2.80;;;;;;;5.57;100.00;98072.31;5013153;28;101759;-62
2022/01/18 13:09:54;;;;;;;4.43;3.00;;;;;;;5.87;100.00;98073.22;5022318;28;105381;-62
2022/01/18 13:13:01;;;;;;;5.00;3.20;;;;;;;5.92;100.00;98076.13;5029896;28;101844;-61
2022/01/18 13:15:46;;;;;;;4.93;3.20;;;;;;;5.99;100.00;98075.25;4994263;28;105191;-61